Cascade, Idaho
Current Conditions -  °F | °C
As of 6:19 PM on Tuesday 21 Oct 2014 (Local Time) from KMYL Reporting Station
Light Rain Light Rain  
Wind Chill: 34°   Ceiling: 3100
Heat Index: 40°   Visibility: 10mi
Dew Point: 36°   Wind: 9mph
Humidity: 86%   Direction: 30°NNE
Pressure: 30.05"   Gusts: NA
Location:  44.52°N, 116.04°W
Report Text: KMYL 220019Z AUTO 03008KT 10SM -RA FEW020 SCT027 OVC031 04/02 A3005 RMK AO2 RAB05 P0000 T00440022
Loading
Personal Weather Stations






























Interactive Weather Map
Tropical Storm Tracking
New forecast layout! Learn more

10-Day Weather Forecast

Advertisements
Track Severe Weather on mobile